Time;durP1;ratioP1;P1;durP2;ratioP2;P2;SDS_P1;SDS_P2;PMS_P1;PMS_P2;Temp;Humidity;BMP_temperature;BMP_pressure;BME280_temperature;BME280_humidity;BME280_pressure;Samples;Min_cycle;Max_cycle;Signal;HPM_P1;HPM_P2
2023/05/03 00:00:41;;;;;;;32.78;21.70;;;29.60;92.50;;;;;;1874929;75;21174;-84
2023/05/03 00:03:13;;;;;;;27.37;21.33;;;29.60;92.50;;;;;;1872083;75;21191;-82
2023/05/03 00:05:44;;;;;;;29.18;21.95;;;29.70;92.60;;;;;;1867808;76;21142;-83
2023/05/03 00:08:15;;;;;;;29.18;21.60;;;29.70;92.40;;;;;;1836141;78;21097;-81
2023/05/03 00:10:46;;;;;;;30.35;22.25;;;29.80;92.30;;;;;;1912442;74;21065;-81
2023/05/03 00:13:17;;;;;;;26.27;20.45;;;29.80;92.10;;;;;;1913555;74;21182;-81
2023/05/03 00:15:48;;;;;;;28.27;21.12;;;29.80;92.00;;;;;;1922844;74;21122;-82
2023/05/03 00:18:20;;;;;;;26.65;21.68;;;29.80;92.10;;;;;;1917002;74;21177;-82
2023/05/03 00:20:52;;;;;;;30.85;21.23;;;29.80;92.00;;;;;;1934623;74;21111;-81
2023/05/03 00:23:23;;;;;;;28.75;20.62;;;29.80;92.10;;;;;;1911995;73;21601;-81
2023/05/03 00:25:58;;;;;;;26.52;20.48;;;29.80;92.00;;;;;;1914442;74;21147;-81
2023/05/03 00:28:29;;;;;;;28.57;20.60;;;29.90;91.90;;;;;;1918716;74;21804;-82
2023/05/03 00:31:08;;;;;;;29.30;22.67;;;29.90;91.90;;;;;;1911648;74;21225;-81
2023/05/03 00:33:40;;;;;;;29.87;20.32;;;30.00;91.60;;;;;;1870843;75;21198;-81
2023/05/03 00:36:13;;;;;;;28.70;20.92;;;30.00;91.50;;;;;;1872713;75;21196;-82
2023/05/03 00:38:44;;;;;;;30.00;21.35;;;30.00;91.60;;;;;;1872628;76;21063;-81
2023/05/03 00:41:16;;;;;;;27.85;21.25;;;30.00;91.60;;;;;;1925654;74;21170;-81
2023/05/03 00:43:47;;;;;;;29.18;21.30;;;30.10;91.60;;;;;;1913235;74;21111;-80
2023/05/03 00:46:18;;;;;;;31.90;22.22;;;30.20;91.60;;;;;;1935074;74;21072;-83
2023/05/03 00:48:50;;;;;;;26.02;20.30;;;30.20;91.60;;;;;;1901294;74;21233;-81
2023/05/03 00:51:22;;;;;;;25.75;21.23;;;30.30;91.20;;;;;;1888855;75;21213;-81
2023/05/03 00:53:53;;;;;;;27.65;20.82;;;30.40;91.20;;;;;;1891661;74;21254;-72
2023/05/03 00:56:26;;;;;;;34.30;21.27;;;30.40;91.60;;;;;;1892842;75;21091;-73
2023/05/03 00:58:58;;;;;;;30.77;20.32;;;30.40;91.10;;;;;;1869819;75;21099;-73
2023/05/03 01:01:30;;;;;;;29.07;20.88;;;30.50;90.80;;;;;;1891501;74;21602;-73
2023/05/03 01:04:05;;;;;;;27.80;20.88;;;30.60;90.80;;;;;;1911504;74;21201;-75
2023/05/03 01:06:54;;;;;;;28.73;20.60;;;30.70;90.80;;;;;;1915047;74;21492;-74
2023/05/03 01:09:43;;;;;;;27.73;20.50;;;30.70;90.50;;;;;;1897570;74;21191;-74
2023/05/03 01:12:16;;;;;;;29.40;21.85;;;30.80;90.20;;;;;;1903955;73;21151;-76
2023/05/03 01:15:09;;;;;;;30.25;21.42;;;30.80;90.20;;;;;;1900325;74;21548;-74
2023/05/03 01:17:42;;;;;;;27.60;20.82;;;30.80;90.30;;;;;;1894653;74;21099;-74
2023/05/03 01:20:15;;;;;;;31.15;21.55;;;30.90;90.30;;;;;;1876462;74;21179;-74
2023/05/03 01:22:48;;;;;;;27.75;21.62;;;31.00;90.10;;;;;;1900136;74;21152;-74
2023/05/03 01:25:20;;;;;;;29.15;21.93;;;31.00;90.10;;;;;;1904557;74;21186;-73
2023/05/03 01:27:52;;;;;;;35.55;22.35;;;31.10;90.00;;;;;;1906420;74;21119;-76
2023/05/03 01:30:26;;;;;;;30.37;21.97;;;31.10;90.00;;;;;;1900745;74;21165;-74
2023/05/03 01:33:03;;;;;;;31.70;22.80;;;31.30;90.00;;;;;;1904165;74;21182;-72
2023/05/03 01:35:56;;;;;;;33.28;22.58;;;31.30;89.70;;;;;;1899636;74;21213;-72
2023/05/03 01:38:29;;;;;;;31.35;22.27;;;31.40;89.40;;;;;;1906602;74;21158;-74
2023/05/03 01:41:03;;;;;;;33.48;20.95;;;31.50;88.90;;;;;;1907517;74;21112;-73
2023/05/03 01:43:36;;;;;;;29.82;21.45;;;31.50;89.30;;;;;;1911308;74;22271;-71
2023/05/03 01:46:08;;;;;;;27.90;20.82;;;31.70;89.30;;;;;;1916294;74;21205;-73
2023/05/03 01:48:40;;;;;;;26.62;20.37;;;31.80;89.30;;;;;;1913165;74;21197;-73
2023/05/03 01:51:11;;;;;;;26.95;20.80;;;31.90;88.00;;;;;;1903726;74;21222;-75
2023/05/03 01:53:43;;;;;;;28.52;20.48;;;32.00;86.70;;;;;;1900142;74;21977;-76
2023/05/03 01:56:14;;;;;;;25.60;20.10;;;32.10;86.60;;;;;;1902181;74;21130;-75
2023/05/03 01:58:46;;;;;;;26.62;19.82;;;32.10;85.80;;;;;;1886488;74;21147;-74
2023/05/03 02:01:18;;;;;;;24.35;18.70;;;32.20;84.80;;;;;;1901715;74;21147;-74
2023/05/03 02:03:50;;;;;;;24.02;18.90;;;32.30;85.90;;;;;;1906734;74;21205;-75
2023/05/03 02:06:21;;;;;;;25.77;19.45;;;32.30;85.10;;;;;;1905928;73;21190;-73
2023/05/03 02:08:53;;;;;;;29.95;18.67;;;32.40;85.20;;;;;;1920618;74;21180;-76
2023/05/03 02:11:24;;;;;;;27.52;19.27;;;32.60;84.60;;;;;;1907027;74;21813;-75
2023/05/03 02:13:56;;;;;;;30.40;20.08;;;32.70;83.80;;;;;;1917752;73;21123;-73
2023/05/03 02:16:27;;;;;;;29.23;19.82;;;32.90;83.30;;;;;;1908765;74;21221;-73
2023/05/03 02:19:02;;;;;;;23.05;18.10;;;33.00;83.00;;;;;;1906766;73;21613;-74
2023/05/03 02:21:35;;;;;;;21.93;19.05;;;33.10;83.10;;;;;;1907955;74;21665;-74
2023/05/03 02:24:07;;;;;;;29.50;18.35;;;33.30;82.20;;;;;;1910798;74;21160;-74
2023/05/03 02:26:38;;;;;;;21.57;17.57;;;33.50;81.00;;;;;;1911483;74;21212;-74
2023/05/03 02:29:09;;;;;;;30.10;16.80;;;33.50;79.80;;;;;;1896717;74;21084;-75
2023/05/03 02:31:40;;;;;;;20.37;16.15;;;33.70;78.20;;;;;;1876625;75;21235;-74
2023/05/03 02:34:12;;;;;;;21.73;16.07;;;33.70;78.30;;;;;;1865401;75;21103;-74
2023/05/03 02:36:43;;;;;;;23.15;16.73;;;33.80;77.70;;;;;;1894509;75;21221;-74
2023/05/03 02:39:14;;;;;;;21.02;16.30;;;33.80;77.00;;;;;;1873599;75;21119;-73
2023/05/03 02:41:45;;;;;;;19.48;14.78;;;33.90;76.70;;;;;;1909188;74;21088;-74
2023/05/03 02:44:16;;;;;;;18.77;15.08;;;34.00;76.50;;;;;;1904867;74;21336;-74
2023/05/03 02:46:48;;;;;;;20.10;15.25;;;34.10;77.20;;;;;;1869518;76;21125;-74
2023/05/03 02:49:19;;;;;;;22.40;17.17;;;34.30;75.80;;;;;;1909682;74;21143;-75
2023/05/03 02:51:51;;;;;;;19.45;15.53;;;34.30;75.50;;;;;;1923699;74;21072;-72
2023/05/03 02:54:23;;;;;;;23.10;16.87;;;34.40;75.30;;;;;;1908148;74;21096;-73
2023/05/03 02:56:54;;;;;;;23.27;16.45;;;34.50;74.60;;;;;;1876357;76;21063;-73
2023/05/03 02:59:25;;;;;;;22.13;16.70;;;34.50;75.20;;;;;;1872679;76;21622;-74
2023/05/03 03:01:58;;;;;;;22.02;16.82;;;34.50;74.70;;;;;;1924195;73;21149;-74
2023/05/03 03:04:30;;;;;;;20.02;16.45;;;34.60;73.60;;;;;;1906240;74;21555;-74
2023/05/03 03:07:01;;;;;;;18.67;16.35;;;34.60;73.40;;;;;;1915026;74;21231;-73
2023/05/03 03:09:32;;;;;;;22.60;16.73;;;34.60;73.20;;;;;;1865755;76;21410;-73
2023/05/03 03:12:04;;;;;;;19.15;15.35;;;34.60;73.80;;;;;;1828944;78;21800;-74
2023/05/03 03:14:35;;;;;;;20.25;15.95;;;34.70;73.10;;;;;;1908076;74;21136;-73
2023/05/03 03:17:08;;;;;;;21.40;15.90;;;34.80;72.50;;;;;;1928913;73;21115;-75
2023/05/03 03:19:39;;;;;;;20.82;15.70;;;34.90;72.90;;;;;;1905860;74;21195;-74
2023/05/03 03:22:11;;;;;;;22.70;17.05;;;35.00;72.70;;;;;;1911237;74;21076;-74
2023/05/03 03:24:42;;;;;;;19.80;15.40;;;35.10;73.30;;;;;;1890304;75;21116;-73
2023/05/03 03:27:13;;;;;;;20.75;16.57;;;35.20;72.60;;;;;;1891932;75;21584;-71
2023/05/03 03:29:45;;;;;;;19.00;15.38;;;35.30;72.30;;;;;;1906206;74;21155;-73
2023/05/03 03:32:17;;;;;;;21.17;16.57;;;35.40;71.20;;;;;;1907954;75;21148;-73
2023/05/03 03:34:48;;;;;;;21.90;17.48;;;35.50;70.40;;;;;;1924942;74;21161;-74
2023/05/03 03:37:22;;;;;;;22.90;15.93;;;35.60;69.50;;;;;;1904954;74;21051;-73
2023/05/03 03:39:55;;;;;;;22.45;16.10;;;35.70;68.90;;;;;;1907888;74;21075;-73
2023/05/03 03:42:26;;;;;;;21.17;16.73;;;35.70;68.80;;;;;;1922907;73;21107;-72
2023/05/03 03:44:57;;;;;;;21.35;16.12;;;35.80;69.00;;;;;;1881085;74;21716;-73
2023/05/03 03:47:29;;;;;;;19.87;16.67;;;35.80;68.60;;;;;;1908104;74;21643;-73
2023/05/03 03:50:01;;;;;;;19.20;16.85;;;35.90;68.30;;;;;;1907406;74;21081;-74
2023/05/03 03:52:34;;;;;;;23.27;17.25;;;35.90;67.80;;;;;;1921664;74;21118;-74
2023/05/03 03:55:06;;;;;;;21.33;16.87;;;35.80;68.00;;;;;;1905319;74;21694;-74
2023/05/03 03:57:37;;;;;;;23.80;17.45;;;35.80;68.30;;;;;;1869466;76;21552;-73
2023/05/03 04:00:09;;;;;;;23.02;16.55;;;35.80;67.60;;;;;;1903675;75;21111;-73
2023/05/03 04:02:41;;;;;;;20.52;17.07;;;35.90;67.80;;;;;;1909153;73;21110;-74
2023/05/03 04:05:13;;;;;;;22.90;16.37;;;36.00;67.10;;;;;;1904703;74;21122;-72
2023/05/03 04:07:47;;;;;;;22.40;15.95;;;36.00;66.90;;;;;;1913698;74;21243;-72
2023/05/03 04:10:20;;;;;;;18.52;15.38;;;36.00;66.90;;;;;;1905488;74;21606;-71
2023/05/03 04:12:51;;;;;;;19.27;16.07;;;36.10;66.70;;;;;;1899344;74;21115;-72
2023/05/03 04:15:22;;;;;;;22.07;16.27;;;36.20;65.90;;;;;;1910529;74;21123;-73
2023/05/03 04:17:53;;;;;;;23.73;17.00;;;36.30;65.10;;;;;;1896772;74;21698;-74
2023/05/03 04:20:26;;;;;;;24.67;21.05;;;36.20;66.00;;;;;;1903294;74;21108;-73
2023/05/03 04:22:57;;;;;;;25.80;18.07;;;36.10;66.60;;;;;;1910289;74;21799;-74
2023/05/03 04:25:30;;;;;;;20.80;18.05;;;36.00;67.50;;;;;;1875328;75;21846;-73
2023/05/03 04:28:02;;;;;;;24.87;18.05;;;35.80;66.90;;;;;;1910106;74;21626;-74
2023/05/03 04:30:34;;;;;;;25.72;17.65;;;35.70;67.70;;;;;;1902514;74;21591;-73
2023/05/03 04:33:07;;;;;;;22.87;18.92;;;35.50;68.30;;;;;;1897703;74;21205;-73
2023/05/03 04:35:39;;;;;;;21.30;16.77;;;35.40;68.20;;;;;;1898035;74;21520;-74
2023/05/03 04:38:16;;;;;;;23.67;18.20;;;35.40;68.20;;;;;;1905898;75;21219;-74
2023/05/03 04:40:45;;;;;;;27.20;17.73;;;35.30;68.30;;;;;;1884882;75;21828;-74
2023/05/03 04:43:20;;;;;;;18.70;16.57;;;35.30;68.50;;;;;;1904200;75;21564;-74
2023/05/03 04:45:53;;;;;;;20.82;15.35;;;35.30;66.30;;;;;;1912199;73;21199;-75
2023/05/03 04:48:24;;;;;;;23.85;16.93;;;35.30;67.00;;;;;;1914161;74;21177;-73
2023/05/03 04:50:55;;;;;;;21.65;16.30;;;35.40;67.50;;;;;;1918662;73;21123;-73
2023/05/03 04:53:27;;;;;;;25.10;16.95;;;35.50;66.90;;;;;;1898032;73;21104;-75
2023/05/03 04:56:01;;;;;;;19.60;16.52;;;35.60;66.10;;;;;;1906361;73;21622;-73
2023/05/03 04:58:32;;;;;;;20.77;15.72;;;35.80;66.40;;;;;;1895059;74;21108;-75
2023/05/03 05:01:03;;;;;;;21.80;16.95;;;35.90;67.20;;;;;;1911453;74;21166;-73
2023/05/03 05:03:35;;;;;;;24.55;17.05;;;36.10;66.50;;;;;;1907593;74;21608;-73
2023/05/03 05:06:08;;;;;;;20.45;15.55;;;36.20;64.70;;;;;;1918435;74;21107;-71
2023/05/03 05:08:42;;;;;;;24.30;18.50;;;36.30;65.20;;;;;;1906229;73;21143;-73
2023/05/03 05:11:14;;;;;;;20.43;17.77;;;36.40;64.60;;;;;;1909642;74;21094;-77
2023/05/03 05:13:47;;;;;;;25.17;17.48;;;36.40;64.10;;;;;;1872103;76;21679;-74
2023/05/03 05:16:19;;;;;;;18.75;16.17;;;36.50;64.30;;;;;;1831504;76;21489;-75
2023/05/03 05:18:50;;;;;;;24.40;17.27;;;36.50;64.60;;;;;;1873642;75;21586;-75
2023/05/03 05:21:25;;;;;;;19.07;16.12;;;36.60;64.70;;;;;;1885757;75;21173;-76
2023/05/03 05:23:57;;;;;;;21.37;16.50;;;36.60;64.30;;;;;;1882069;75;21173;-74
2023/05/03 05:26:28;;;;;;;18.73;15.63;;;36.70;62.30;;;;;;1907988;75;21173;-75
2023/05/03 05:29:02;;;;;;;18.20;15.45;;;36.60;62.60;;;;;;1924572;73;21085;-74
2023/05/03 05:31:34;;;;;;;20.75;16.45;;;36.60;62.80;;;;;;1909889;74;21149;-75
2023/05/03 05:34:05;;;;;;;23.00;16.55;;;36.60;62.50;;;;;;1918864;74;21162;-76
2023/05/03 05:36:36;;;;;;;18.20;15.10;;;36.60;61.70;;;;;;1928057;74;21159;-75
2023/05/03 05:39:10;;;;;;;20.05;16.17;;;36.70;63.40;;;;;;1913123;72;21171;-76
2023/05/03 05:41:42;;;;;;;18.95;15.63;;;36.70;62.50;;;;;;1925301;74;21216;-73
2023/05/03 05:44:13;;;;;;;22.30;16.93;;;36.60;63.50;;;;;;1868781;75;21140;-75
2023/05/03 05:46:45;;;;;;;18.62;15.63;;;36.60;62.60;;;;;;1872908;76;21132;-74
2023/05/03 05:49:16;;;;;;;21.37;16.52;;;36.70;63.50;;;;;;1837800;78;21086;-73
2023/05/03 05:51:47;;;;;;;19.65;17.23;;;36.80;62.40;;;;;;1918989;74;21221;-74
2023/05/03 05:54:18;;;;;;;21.25;16.45;;;36.80;62.50;;;;;;1885263;76;21548;-74
2023/05/03 05:56:50;;;;;;;19.15;15.55;;;36.90;61.70;;;;;;1923046;74;21114;-75
2023/05/03 05:59:21;;;;;;;20.37;16.12;;;37.00;61.20;;;;;;1885665;74;21133;-77
2023/05/03 06:01:53;;;;;;;20.25;15.90;;;37.10;61.10;;;;;;1922507;73;21648;-75
2023/05/03 06:04:26;;;;;;;20.75;16.05;;;37.10;62.00;;;;;;1923157;74;21175;-77
2023/05/03 06:06:58;;;;;;;18.70;15.80;;;37.10;60.50;;;;;;1922106;74;21196;-77
2023/05/03 06:09:30;;;;;;;19.82;15.90;;;37.10;61.10;;;;;;1924676;74;21140;-76
2023/05/03 06:12:02;;;;;;;20.27;15.80;;;37.20;61.80;;;;;;1882597;74;21181;-77
2023/05/03 06:14:34;;;;;;;18.80;15.13;;;37.30;61.00;;;;;;1924849;74;21163;-76
2023/05/03 06:17:06;;;;;;;19.62;15.15;;;37.30;80.00;;;;;;1929057;73;21149;-76
2023/05/03 06:19:38;;;;;;;19.60;17.57;;;37.30;60.40;;;;;;1919472;74;21118;-75
2023/05/03 06:22:10;;;;;;;18.52;15.85;;;37.30;61.10;;;;;;1914527;74;21508;-77
2023/05/03 06:24:42;;;;;;;19.80;15.68;;;37.30;61.50;;;;;;1923882;73;21124;-76
2023/05/03 06:27:13;;;;;;;19.07;16.27;;;37.20;59.90;;;;;;1922540;74;21300;-76
2023/05/03 06:29:45;;;;;;;19.65;16.37;;;37.10;59.90;;;;;;1883432;75;21159;-76
2023/05/03 06:32:16;;;;;;;22.22;16.57;;;37.00;59.90;;;;;;1923881;74;21499;-75
2023/05/03 06:34:48;;;;;;;18.65;15.80;;;37.00;59.50;;;;;;1926768;74;21139;-74
2023/05/03 06:37:19;;;;;;;19.70;16.85;;;37.10;59.90;;;;;;1885274;74;21086;-74
2023/05/03 06:39:51;;;;;;;18.25;14.25;;;37.10;60.90;;;;;;1922945;74;21115;-74
2023/05/03 06:42:23;;;;;;;20.45;15.65;;;37.20;58.50;;;;;;1917383;74;21128;-75
2023/05/03 06:44:54;;;;;;;17.45;14.73;;;37.20;58.10;;;;;;1884171;75;21111;-74
2023/05/03 06:47:25;;;;;;;16.48;14.43;;;37.20;58.30;;;;;;1921054;74;21177;-75
2023/05/03 06:49:57;;;;;;;19.30;15.05;;;37.30;57.00;;;;;;1924350;74;21147;-75
2023/05/03 06:52:29;;;;;;;16.75;13.65;;;37.30;56.20;;;;;;1877743;74;21104;-76
2023/05/03 06:55:00;;;;;;;16.35;14.07;;;37.30;57.00;;;;;;1880026;75;21221;-74
2023/05/03 06:57:36;;;;;;;18.65;13.40;;;37.20;56.00;;;;;;1833573;78;21120;-75
2023/05/03 07:00:07;;;;;;;17.67;12.55;;;37.20;56.80;;;;;;1828840;77;21220;-73
2023/05/03 07:02:38;;;;;;;14.47;12.88;;;37.10;56.70;;;;;;1828159;77;21147;-75
2023/05/03 07:05:11;;;;;;;16.17;13.15;;;37.00;56.40;;;;;;1838036;76;21093;-74
2023/05/03 07:07:45;;;;;;;18.12;14.13;;;36.90;57.30;;;;;;1821074;77;21137;-75
2023/05/03 07:10:17;;;;;;;17.32;13.53;;;36.80;56.80;;;;;;1838870;76;21133;-74
2023/05/03 07:12:49;;;;;;;19.60;13.90;;;36.80;56.50;;;;;;1865592;75;21104;-74
2023/05/03 07:15:20;;;;;;;20.85;14.83;;;36.80;55.90;;;;;;1866345;76;21160;-73
2023/05/03 07:17:51;;;;;;;15.98;13.43;;;36.70;56.20;;;;;;1884734;75;21200;-72
2023/05/03 07:20:26;;;;;;;19.45;14.70;;;36.70;55.90;;;;;;1866327;75;21143;-72
2023/05/03 07:23:35;;;;;;;18.52;13.38;;;36.70;56.80;;;;;;1881381;75;21139;-90
2023/05/03 07:26:11;;;;;;;;;;;36.70;57.70;;;;;;1886334;74;21269;-88
2023/05/03 07:28:43;;;;;;;17.65;14.55;;;36.70;58.30;;;;;;1870046;74;20227;-86
2023/05/03 07:31:15;;;;;;;17.77;13.53;;;36.60;56.60;;;;;;1862129;75;21204;-87
2023/05/03 07:33:48;;;;;;;20.85;17.50;;;36.60;57.00;;;;;;1840054;77;21205;-87
2023/05/03 07:36:20;;;;;;;15.28;12.90;;;36.60;57.20;;;;;;1849358;77;21196;-86
2023/05/03 07:38:56;;;;;;;17.35;12.63;;;36.50;57.70;;;;;;1820297;78;21142;-87
2023/05/03 07:41:31;;;;;;;19.85;13.80;;;36.50;56.70;;;;;;1869330;75;21052;-88
2023/05/03 07:44:07;;;;;;;19.17;14.40;;;36.40;56.70;;;;;;1876214;74;21161;-87
2023/05/03 07:46:39;;;;;;;17.80;14.55;;;36.40;57.00;;;;;;1885727;75;21209;-88
2023/05/03 07:49:11;;;;;;;16.52;14.03;;;36.50;57.70;;;;;;1868179;75;21100;-84
2023/05/03 07:51:43;;;;;;;18.67;14.05;;;36.60;58.50;;;;;;1876516;74;21085;-86
2023/05/03 07:54:14;;;;;;;16.32;13.50;;;36.70;58.10;;;;;;1902496;75;21139;-85
2023/05/03 07:56:48;;;;;;;18.12;13.98;;;36.80;57.40;;;;;;1902309;75;21591;-87
2023/05/03 07:59:21;;;;;;;17.82;13.95;;;36.80;57.70;;;;;;1884569;74;21204;-85
2023/05/03 08:01:55;;;;;;;19.07;13.80;;;36.80;56.80;;;;;;1912228;73;21106;-86
2023/05/03 08:04:27;;;;;;;16.20;13.98;;;36.80;57.30;;;;;;1907991;73;21118;-85
2023/05/03 08:07:04;;;;;;;18.90;14.25;;;36.80;57.40;;;;;;1922020;73;21594;-87
2023/05/03 08:09:35;;;;;;;16.20;14.50;;;36.80;57.40;;;;;;1909551;74;21051;-85
2023/05/03 08:12:07;;;;;;;16.15;14.45;;;36.80;56.90;;;;;;1904507;74;21635;-83
2023/05/03 08:14:39;;;;;;;18.57;13.83;;;36.70;57.90;;;;;;1920972;73;21480;-86
2023/05/03 08:17:10;;;;;;;17.73;13.20;;;36.70;57.80;;;;;;1902635;74;21960;-87
2023/05/03 08:19:42;;;;;;;14.87;13.10;;;36.80;58.30;;;;;;1900541;74;21589;-88
2023/05/03 08:22:13;;;;;;;19.45;13.80;;;36.80;57.40;;;;;;1913339;73;21129;-87
2023/05/03 08:24:45;;;;;;;15.75;12.82;;;36.80;56.90;;;;;;1906827;73;21100;-85
2023/05/03 08:27:16;;;;;;;17.80;14.05;;;36.90;55.50;;;;;;1908783;73;21128;-85
2023/05/03 08:29:48;;;;;;;17.10;13.62;;;37.00;56.30;;;;;;1911452;74;21176;-85
2023/05/03 08:32:21;;;;;;;20.80;12.90;;;37.10;56.50;;;;;;1888560;75;21619;-88
2023/05/03 08:34:52;;;;;;;22.13;14.35;;;37.10;56.30;;;;;;1906835;74;21127;-86
2023/05/03 08:37:24;;;;;;;16.73;12.28;;;37.10;57.00;;;;;;1920465;73;21056;-88
2023/05/03 08:39:56;;;;;;;16.15;12.80;;;37.00;56.40;;;;;;1905376;74;21251;-87
2023/05/03 08:42:30;;;;;;;14.65;12.35;;;37.00;56.10;;;;;;1906946;75;21131;-85
2023/05/03 08:45:01;;;;;;;16.00;13.62;;;36.90;56.80;;;;;;1923146;73;21118;-85
2023/05/03 08:47:36;;;;;;;18.92;13.30;;;36.90;57.40;;;;;;1908314;75;21047;-86
2023/05/03 08:50:07;;;;;;;16.85;13.65;;;36.80;56.90;;;;;;1917292;75;21157;-86
2023/05/03 08:52:41;;;;;;;17.30;12.63;;;36.80;57.40;;;;;;1886359;74;21215;-86
2023/05/03 08:55:21;;;;;;;17.92;12.93;;;36.80;57.20;;;;;;1866353;75;21575;-83
2023/05/03 08:57:53;;;;;;;14.60;12.80;;;36.80;56.90;;;;;;1860371;75;21131;-85
2023/05/03 09:00:29;;;;;;;17.60;13.00;;;36.80;56.70;;;;;;1844126;75;21120;-84
2023/05/03 09:03:01;;;;;;;14.78;12.90;;;36.80;56.50;;;;;;1857634;75;21120;-85
2023/05/03 09:05:34;;;;;;;19.15;12.73;;;36.80;56.50;;;;;;1881648;75;21082;-84
2023/05/03 09:08:08;;;;;;;14.28;12.88;;;36.80;56.00;;;;;;1881400;75;21104;-84
2023/05/03 09:10:41;;;;;;;18.40;13.22;;;36.80;57.10;;;;;;1893235;75;21619;-86
2023/05/03 09:13:13;;;;;;;19.60;13.53;;;36.70;57.20;;;;;;1869140;75;21088;-85
2023/05/03 09:15:47;;;;;;;19.55;13.93;;;36.60;57.10;;;;;;1886109;75;21127;-86
2023/05/03 09:18:20;;;;;;;19.30;15.23;;;36.50;57.30;;;;;;1890516;75;21118;-85
2023/05/03 09:20:56;;;;;;;21.07;14.10;;;36.50;57.20;;;;;;1889342;75;21233;-85
2023/05/03 09:23:31;;;;;;;17.30;14.87;;;36.50;57.30;;;;;;1894137;75;21583;-86
2023/05/03 09:26:03;;;;;;;20.08;14.53;;;36.40;57.30;;;;;;1871739;75;21187;-86
2023/05/03 09:28:42;;;;;;;25.65;14.83;;;36.40;57.50;;;;;;1883761;75;21227;-85
2023/05/03 09:31:16;;;;;;;16.73;14.53;;;36.30;57.60;;;;;;1867147;75;21137;-86
2023/05/03 09:33:47;;;;;;;19.12;14.78;;;36.30;57.70;;;;;;1875416;75;21261;-87
2023/05/03 09:36:20;;;;;;;16.20;14.38;;;36.30;57.90;;;;;;1880995;75;21139;-86
2023/05/03 09:38:53;;;;;;;16.75;13.60;;;36.20;58.20;;;;;;1869321;75;21119;-86
2023/05/03 09:41:29;;;;;;;24.00;14.90;;;36.20;60.00;;;;;;1897382;74;21629;-86
2023/05/03 09:44:04;;;;;;;24.47;12.90;;;36.00;61.10;;;;;;1881171;75;21594;-85
2023/05/03 09:46:36;;;;;;;20.00;14.20;;;35.60;62.50;;;;;;1883130;75;21192;-85
2023/05/03 09:49:07;;;;;;;22.10;14.10;;;35.30;63.90;;;;;;1876648;75;21194;-86
2023/05/03 09:51:40;;;;;;;18.82;13.90;;;35.00;65.50;;;;;;1878611;75;21083;-86
2023/05/03 09:54:12;;;;;;;15.95;14.18;;;34.70;66.60;;;;;;1919853;73;21209;-83
2023/05/03 09:56:46;;;;;;;22.25;15.32;;;34.40;67.50;;;;;;1914009;74;21664;-84
2023/05/03 09:59:17;;;;;;;17.73;14.38;;;34.20;68.30;;;;;;1929177;73;21102;-84
2023/05/03 10:01:50;;;;;;;20.92;15.20;;;34.00;69.30;;;;;;1937512;73;21082;-86
2023/05/03 10:04:26;;;;;;;22.98;15.55;;;33.90;70.00;;;;;;1934961;73;21142;-85
2023/05/03 10:07:08;;;;;;;19.73;14.87;;;33.80;70.20;;;;;;1928927;73;21195;-84
2023/05/03 10:09:48;;;;;;;21.30;15.03;;;33.80;70.40;;;;;;1929977;73;21122;-84
2023/05/03 10:12:25;;;;;;;21.12;15.75;;;33.80;70.40;;;;;;1937881;73;21095;-84
2023/05/03 10:14:55;;;;;;;22.15;15.13;;;33.70;70.20;;;;;;1917989;73;21126;-84
2023/05/03 10:17:32;;;;;;;18.52;14.78;;;33.80;70.40;;;;;;1885427;76;21141;-84
2023/05/03 10:20:22;;;;;;;18.57;13.83;;;33.80;69.60;;;;;;1864695;76;21663;-85
2023/05/03 10:23:11;;;;;;;20.15;15.72;;;33.90;70.40;;;;;;1888977;74;21204;-86
2023/05/03 10:26:03;;;;;;;18.20;14.70;;;33.90;69.50;;;;;;1898704;74;21082;-84
2023/05/03 10:28:38;;;;;;;17.15;14.43;;;33.90;69.20;;;;;;1826915;77;21244;-85
2023/05/03 10:31:23;;;;;;;21.15;14.13;;;34.00;69.00;;;;;;1866285;75;21169;-85
2023/05/03 10:33:54;;;;;;;23.43;13.93;;;34.00;68.80;;;;;;1877367;74;21143;-85
2023/05/03 10:36:27;;;;;;;23.27;15.65;;;34.00;68.20;;;;;;1930761;73;21122;-86
2023/05/03 10:39:00;;;;;;;21.77;13.15;;;34.00;68.00;;;;;;1919730;74;21139;-84
2023/05/03 10:41:33;;;;;;;20.32;14.33;;;34.00;67.50;;;;;;1941127;73;21155;-86
2023/05/03 10:44:27;;;;;;;22.50;14.83;;;34.00;67.20;;;;;;1922886;73;21483;-84
2023/05/03 10:46:59;;;;;;;24.95;16.87;;;34.00;67.30;;;;;;1915810;73;21197;-85
2023/05/03 10:50:09;;;;;;;;;;;;;;;;;;;;;
2023/05/03 10:52:42;;;;;;;29.57;16.55;;;34.00;67.20;;;;;;1802437;77;21712;-85
2023/05/03 10:55:19;;;;;;;17.32;12.70;;;34.10;66.80;;;;;;1836905;78;21595;-85
2023/05/03 10:57:53;;;;;;;16.23;11.95;;;34.10;66.40;;;;;;1821281;78;21648;-86
2023/05/03 11:00:35;;;;;;;25.65;13.55;;;34.10;66.00;;;;;;1812484;78;21141;-85
2023/05/03 11:03:15;;;;;;;19.77;13.75;;;34.10;66.10;;;;;;1822593;76;21795;-85
2023/05/03 11:05:48;;;;;;;17.82;13.40;;;34.20;65.90;;;;;;1832430;77;21140;-84
2023/05/03 11:08:22;;;;;;;21.77;14.10;;;34.10;66.00;;;;;;1818994;77;21717;-85
2023/05/03 11:11:01;;;;;;;24.72;15.13;;;34.10;65.50;;;;;;1825523;77;21170;-85
2023/05/03 11:13:37;;;;;;;25.02;14.95;;;34.10;65.90;;;;;;1839744;75;21125;-85
2023/05/03 11:16:06;;;;;;;21.48;14.63;;;34.10;65.90;;;;;;1907777;74;21256;-80
2023/05/03 11:18:37;;;;;;;21.15;14.78;;;34.00;65.90;;;;;;1879469;75;21103;-79
2023/05/03 11:21:08;;;;;;;19.65;14.15;;;34.10;66.10;;;;;;1869254;75;21114;-79
2023/05/03 11:23:41;;;;;;;24.40;14.25;;;34.00;66.00;;;;;;1834929;76;21124;-78
2023/05/03 11:26:14;;;;;;;17.95;13.80;;;34.00;66.50;;;;;;1854759;75;21621;-78
2023/05/03 11:28:45;;;;;;;19.07;14.50;;;34.00;66.60;;;;;;1870317;76;21147;-78
2023/05/03 11:31:16;;;;;;;24.52;15.58;;;33.90;67.10;;;;;;1872604;76;21138;-81
2023/05/03 11:33:49;;;;;;;22.95;14.80;;;33.90;67.80;;;;;;1920859;74;21131;-80
2023/05/03 11:36:21;;;;;;;20.95;15.25;;;33.90;68.00;;;;;;1915878;74;21680;-78
2023/05/03 11:38:52;;;;;;;18.05;15.53;;;33.80;68.20;;;;;;1930533;74;21195;-79
2023/05/03 11:41:24;;;;;;;19.55;15.53;;;33.80;68.50;;;;;;1907563;73;21491;-79
2023/05/03 11:43:56;;;;;;;22.95;14.63;;;33.70;68.70;;;;;;1877719;76;21204;-85
2023/05/03 11:46:30;;;;;;;20.12;15.58;;;33.70;69.10;;;;;;1883908;75;21623;-84
2023/05/03 11:49:02;;;;;;;21.55;15.28;;;33.60;69.20;;;;;;1873823;76;21147;-85
2023/05/03 11:51:34;;;;;;;22.35;16.50;;;33.60;69.50;;;;;;1901299;75;21106;-85
2023/05/03 11:54:06;;;;;;;18.50;15.25;;;33.60;69.70;;;;;;1913303;74;21162;-85
2023/05/03 11:56:39;;;;;;;23.32;15.32;;;33.60;69.70;;;;;;1914384;73;21098;-85
2023/05/03 11:59:10;;;;;;;21.37;15.53;;;33.60;70.00;;;;;;1917138;73;21122;-84
2023/05/03 12:01:42;;;;;;;24.67;15.40;;;33.50;70.20;;;;;;1922475;74;21673;-81
2023/05/03 12:04:15;;;;;;;20.05;15.32;;;33.50;70.30;;;;;;1912827;74;21135;-81
2023/05/03 12:06:51;;;;;;;21.20;13.93;;;33.50;70.50;;;;;;1885486;74;21715;-83
2023/05/03 12:09:22;;;;;;;23.27;15.45;;;33.40;71.50;;;;;;1884962;76;21123;-81
2023/05/03 12:11:55;;;;;;;20.90;15.05;;;33.40;70.90;;;;;;1914185;75;21122;-85
2023/05/03 12:14:28;;;;;;;19.35;15.40;;;33.40;71.20;;;;;;1908939;73;21115;-81
2023/05/03 12:17:00;;;;;;;20.32;15.68;;;33.30;71.50;;;;;;1893508;73;21205;-81
2023/05/03 12:19:31;;;;;;;23.52;15.60;;;33.30;71.70;;;;;;1845790;75;21104;-84
2023/05/03 12:22:04;;;;;;;18.40;14.65;;;33.20;72.00;;;;;;1881142;75;21126;-83
2023/05/03 12:24:37;;;;;;;22.65;15.38;;;33.20;72.10;;;;;;1903224;74;21103;-79
2023/05/03 12:27:12;;;;;;;19.90;14.73;;;33.20;72.50;;;;;;1904457;74;21551;-81
2023/05/03 12:29:44;;;;;;;19.95;14.87;;;33.10;72.70;;;;;;1905863;74;21094;-83
2023/05/03 12:32:16;;;;;;;19.12;14.45;;;33.10;73.00;;;;;;1919658;74;21088;-82
2023/05/03 12:34:50;;;;;;;20.48;15.08;;;33.10;73.20;;;;;;1859851;75;21206;-85
2023/05/03 12:37:24;;;;;;;21.42;15.00;;;33.00;73.50;;;;;;1919747;72;21103;-84
2023/05/03 12:39:56;;;;;;;19.00;14.33;;;32.90;73.60;;;;;;1902626;75;21116;-84
2023/05/03 12:42:29;;;;;;;21.70;14.68;;;32.90;73.80;;;;;;1897788;75;21675;-80
2023/05/03 12:45:02;;;;;;;19.55;15.03;;;32.90;74.20;;;;;;1903430;75;21608;-84
2023/05/03 12:47:35;;;;;;;20.20;15.03;;;32.80;74.20;;;;;;1891721;74;21437;-81
2023/05/03 12:50:09;;;;;;;20.12;14.35;;;32.80;74.40;;;;;;1905251;75;21135;-82
2023/05/03 12:52:41;;;;;;;23.10;14.50;;;32.80;74.80;;;;;;1906101;73;21104;-81
2023/05/03 12:55:14;;;;;;;21.50;14.80;;;32.80;74.80;;;;;;1868737;75;21216;-79
2023/05/03 12:57:47;;;;;;;20.43;14.73;;;32.70;74.80;;;;;;1865213;75;21228;-81